sensor_id;sensor_type;location;lat;lon;timestamp;P1;durP1;ratioP1;P2;durP2;ratioP2
25936;SDS011;13733;51.178;4.450;2022-09-06T00:01:06;10.10;;;3.45;;
25936;SDS011;13733;51.178;4.450;2022-09-06T00:03:33;4.28;;;2.95;;
25936;SDS011;13733;51.178;4.450;2022-09-06T00:06:03;4.88;;;3.42;;
25936;SDS011;13733;51.178;4.450;2022-09-06T00:08:30;6.45;;;3.58;;
25936;SDS011;13733;51.178;4.450;2022-09-06T00:10:56;5.43;;;3.47;;
25936;SDS011;13733;51.178;4.450;2022-09-06T00:13:22;3.83;;;3.25;;
25936;SDS011;13733;51.178;4.450;2022-09-06T00:15:48;6.00;;;3.40;;
25936;SDS011;13733;51.178;4.450;2022-09-06T00:18:14;3.83;;;3.40;;
25936;SDS011;13733;51.178;4.450;2022-09-06T00:20:39;5.38;;;3.40;;
25936;SDS011;13733;51.178;4.450;2022-09-06T00:23:06;7.70;;;3.70;;
25936;SDS011;13733;51.178;4.450;2022-09-06T00:25:33;6.50;;;3.60;;
25936;SDS011;13733;51.178;4.450;2022-09-06T00:28:00;6.38;;;3.75;;
25936;SDS011;13733;51.178;4.450;2022-09-06T00:30:28;6.20;;;3.75;;
25936;SDS011;13733;51.178;4.450;2022-09-06T00:32:55;7.38;;;3.63;;
25936;SDS011;13733;51.178;4.450;2022-09-06T00:35:21;5.03;;;3.35;;
25936;SDS011;13733;51.178;4.450;2022-09-06T00:37:56;9.30;;;3.40;;
25936;SDS011;13733;51.178;4.450;2022-09-06T00:40:23;4.90;;;3.10;;
25936;SDS011;13733;51.178;4.450;2022-09-06T00:42:49;4.72;;;3.38;;
25936;SDS011;13733;51.178;4.450;2022-09-06T00:45:15;4.05;;;3.65;;
25936;SDS011;13733;51.178;4.450;2022-09-06T00:47:42;7.95;;;3.28;;
25936;SDS011;13733;51.178;4.450;2022-09-06T00:50:09;6.53;;;3.58;;
25936;SDS011;13733;51.178;4.450;2022-09-06T00:52:36;6.93;;;3.50;;
25936;SDS011;13733;51.178;4.450;2022-09-06T00:55:03;6.43;;;3.22;;
25936;SDS011;13733;51.178;4.450;2022-09-06T00:57:30;5.75;;;3.70;;
25936;SDS011;13733;51.178;4.450;2022-09-06T00:59:56;5.75;;;3.63;;
25936;SDS011;13733;51.178;4.450;2022-09-06T01:02:24;5.97;;;3.55;;
25936;SDS011;13733;51.178;4.450;2022-09-06T01:04:50;6.55;;;3.65;;
25936;SDS011;13733;51.178;4.450;2022-09-06T01:15:12;9.43;;;4.03;;
25936;SDS011;13733;51.178;4.450;2022-09-06T01:20:52;4.00;;;3.60;;
25936;SDS011;13733;51.178;4.450;2022-09-06T01:23:58;5.97;;;3.83;;
25936;SDS011;13733;51.178;4.450;2022-09-06T01:32:34;7.47;;;4.10;;
25936;SDS011;13733;51.178;4.450;2022-09-06T01:37:48;5.80;;;4.78;;
25936;SDS011;13733;51.178;4.450;2022-09-06T01:40:15;4.93;;;3.90;;
25936;SDS011;13733;51.178;4.450;2022-09-06T01:42:40;5.30;;;4.20;;
25936;SDS011;13733;51.178;4.450;2022-09-06T01:45:10;7.28;;;4.15;;
25936;SDS011;13733;51.178;4.450;2022-09-06T01:50:44;8.90;;;4.55;;
25936;SDS011;13733;51.178;4.450;2022-09-06T01:56:36;6.63;;;4.32;;
25936;SDS011;13733;51.178;4.450;2022-09-06T02:02:34;5.97;;;4.32;;
25936;SDS011;13733;51.178;4.450;2022-09-06T02:05:16;6.93;;;4.20;;
25936;SDS011;13733;51.178;4.450;2022-09-06T02:07:46;6.28;;;4.55;;
25936;SDS011;13733;51.178;4.450;2022-09-06T02:10:25;4.95;;;4.00;;
25936;SDS011;13733;51.178;4.450;2022-09-06T02:12:56;7.35;;;4.53;;
25936;SDS011;13733;51.178;4.450;2022-09-06T02:15:26;5.70;;;4.13;;
25936;SDS011;13733;51.178;4.450;2022-09-06T02:17:57;6.43;;;4.57;;
25936;SDS011;13733;51.178;4.450;2022-09-06T02:20:28;9.02;;;5.00;;
25936;SDS011;13733;51.178;4.450;2022-09-06T02:22:56;6.38;;;4.50;;
25936;SDS011;13733;51.178;4.450;2022-09-06T02:25:26;4.88;;;4.00;;
25936;SDS011;13733;51.178;4.450;2022-09-06T02:30:21;6.53;;;4.30;;
25936;SDS011;13733;51.178;4.450;2022-09-06T02:32:56;7.13;;;4.53;;
25936;SDS011;13733;51.178;4.450;2022-09-06T02:35:26;6.72;;;4.72;;
25936;SDS011;13733;51.178;4.450;2022-09-06T02:37:51;8.60;;;4.50;;
25936;SDS011;13733;51.178;4.450;2022-09-06T02:40:17;6.60;;;4.70;;
25936;SDS011;13733;51.178;4.450;2022-09-06T02:42:44;7.03;;;4.72;;
25936;SDS011;13733;51.178;4.450;2022-09-06T02:45:09;6.85;;;4.50;;
25936;SDS011;13733;51.178;4.450;2022-09-06T02:47:35;8.55;;;5.15;;
25936;SDS011;13733;51.178;4.450;2022-09-06T02:50:01;7.80;;;4.80;;
25936;SDS011;13733;51.178;4.450;2022-09-06T02:52:27;7.70;;;4.80;;
25936;SDS011;13733;51.178;4.450;2022-09-06T02:54:52;5.55;;;4.45;;
25936;SDS011;13733;51.178;4.450;2022-09-06T02:57:19;11.02;;;5.05;;
25936;SDS011;13733;51.178;4.450;2022-09-06T02:59:44;6.78;;;4.90;;
25936;SDS011;13733;51.178;4.450;2022-09-06T03:02:10;6.15;;;5.03;;
25936;SDS011;13733;51.178;4.450;2022-09-06T03:04:36;6.22;;;4.72;;
25936;SDS011;13733;51.178;4.450;2022-09-06T03:07:01;8.82;;;4.18;;
25936;SDS011;13733;51.178;4.450;2022-09-06T03:09:27;7.03;;;4.57;;
25936;SDS011;13733;51.178;4.450;2022-09-06T03:11:53;6.53;;;4.88;;
25936;SDS011;13733;51.178;4.450;2022-09-06T03:14:20;4.85;;;4.22;;
25936;SDS011;13733;51.178;4.450;2022-09-06T03:16:45;6.00;;;4.68;;
25936;SDS011;13733;51.178;4.450;2022-09-06T03:19:11;6.05;;;4.90;;
25936;SDS011;13733;51.178;4.450;2022-09-06T03:21:37;5.63;;;4.80;;
25936;SDS011;13733;51.178;4.450;2022-09-06T03:24:02;6.70;;;4.70;;
25936;SDS011;13733;51.178;4.450;2022-09-06T03:26:28;6.93;;;5.00;;
25936;SDS011;13733;51.178;4.450;2022-09-06T03:28:54;9.57;;;5.05;;
25936;SDS011;13733;51.178;4.450;2022-09-06T03:31:21;5.30;;;4.80;;
25936;SDS011;13733;51.178;4.450;2022-09-06T03:33:46;5.18;;;4.57;;
25936;SDS011;13733;51.178;4.450;2022-09-06T03:36:12;7.85;;;5.38;;
25936;SDS011;13733;51.178;4.450;2022-09-06T03:38:38;7.65;;;5.38;;
25936;SDS011;13733;51.178;4.450;2022-09-06T03:41:04;6.45;;;4.97;;
25936;SDS011;13733;51.178;4.450;2022-09-06T03:43:30;6.00;;;4.78;;
25936;SDS011;13733;51.178;4.450;2022-09-06T03:45:56;5.75;;;4.70;;
25936;SDS011;13733;51.178;4.450;2022-09-06T03:48:23;5.18;;;4.63;;
25936;SDS011;13733;51.178;4.450;2022-09-06T03:50:52;10.73;;;5.28;;
25936;SDS011;13733;51.178;4.450;2022-09-06T03:53:19;7.90;;;4.97;;
25936;SDS011;13733;51.178;4.450;2022-09-06T03:55:46;5.78;;;5.07;;
25936;SDS011;13733;51.178;4.450;2022-09-06T03:58:13;8.20;;;5.30;;
25936;SDS011;13733;51.178;4.450;2022-09-06T04:00:40;8.65;;;5.22;;
25936;SDS011;13733;51.178;4.450;2022-09-06T04:03:06;8.68;;;5.40;;
25936;SDS011;13733;51.178;4.450;2022-09-06T04:05:33;7.22;;;5.43;;
25936;SDS011;13733;51.178;4.450;2022-09-06T04:07:58;7.45;;;5.72;;
25936;SDS011;13733;51.178;4.450;2022-09-06T04:10:24;6.80;;;5.68;;
25936;SDS011;13733;51.178;4.450;2022-09-06T04:12:50;8.57;;;5.50;;
25936;SDS011;13733;51.178;4.450;2022-09-06T04:15:15;8.73;;;5.70;;
25936;SDS011;13733;51.178;4.450;2022-09-06T04:17:44;9.60;;;6.03;;
25936;SDS011;13733;51.178;4.450;2022-09-06T04:20:14;8.55;;;6.90;;
25936;SDS011;13733;51.178;4.450;2022-09-06T04:22:40;12.05;;;6.72;;
25936;SDS011;13733;51.178;4.450;2022-09-06T04:25:06;10.38;;;6.45;;
25936;SDS011;13733;51.178;4.450;2022-09-06T04:27:32;12.18;;;6.47;;
25936;SDS011;13733;51.178;4.450;2022-09-06T04:29:58;10.50;;;5.80;;
25936;SDS011;13733;51.178;4.450;2022-09-06T04:32:23;7.63;;;5.55;;
25936;SDS011;13733;51.178;4.450;2022-09-06T04:34:49;8.30;;;6.63;;
25936;SDS011;13733;51.178;4.450;2022-09-06T04:37:15;9.23;;;6.82;;
25936;SDS011;13733;51.178;4.450;2022-09-06T04:39:47;10.85;;;6.95;;
25936;SDS011;13733;51.178;4.450;2022-09-06T04:42:13;9.77;;;6.70;;
25936;SDS011;13733;51.178;4.450;2022-09-06T04:44:39;8.48;;;7.30;;
25936;SDS011;13733;51.178;4.450;2022-09-06T04:47:06;14.70;;;7.70;;
25936;SDS011;13733;51.178;4.450;2022-09-06T04:49:39;12.05;;;7.68;;
25936;SDS011;13733;51.178;4.450;2022-09-06T04:52:05;9.10;;;7.40;;
25936;SDS011;13733;51.178;4.450;2022-09-06T04:54:30;13.07;;;7.93;;
25936;SDS011;13733;51.178;4.450;2022-09-06T04:56:56;9.00;;;6.95;;
25936;SDS011;13733;51.178;4.450;2022-09-06T04:59:22;8.80;;;6.90;;
25936;SDS011;13733;51.178;4.450;2022-09-06T05:01:47;8.85;;;6.78;;
25936;SDS011;13733;51.178;4.450;2022-09-06T05:04:13;12.23;;;7.20;;
25936;SDS011;13733;51.178;4.450;2022-09-06T05:06:39;9.18;;;7.57;;
25936;SDS011;13733;51.178;4.450;2022-09-06T05:09:06;9.07;;;7.45;;
25936;SDS011;13733;51.178;4.450;2022-09-06T05:11:32;13.82;;;8.30;;
25936;SDS011;13733;51.178;4.450;2022-09-06T05:13:58;9.65;;;7.40;;
25936;SDS011;13733;51.178;4.450;2022-09-06T05:16:24;10.73;;;7.28;;
25936;SDS011;13733;51.178;4.450;2022-09-06T05:18:50;12.63;;;7.78;;
25936;SDS011;13733;51.178;4.450;2022-09-06T05:21:16;9.70;;;7.53;;
25936;SDS011;13733;51.178;4.450;2022-09-06T05:23:42;8.95;;;6.60;;
25936;SDS011;13733;51.178;4.450;2022-09-06T05:26:08;9.75;;;7.40;;
25936;SDS011;13733;51.178;4.450;2022-09-06T05:28:34;12.35;;;7.72;;
25936;SDS011;13733;51.178;4.450;2022-09-06T05:31:10;10.45;;;7.88;;
25936;SDS011;13733;51.178;4.450;2022-09-06T05:33:37;11.77;;;7.55;;
25936;SDS011;13733;51.178;4.450;2022-09-06T05:36:04;14.15;;;7.53;;
25936;SDS011;13733;51.178;4.450;2022-09-06T05:38:30;19.42;;;7.82;;
25936;SDS011;13733;51.178;4.450;2022-09-06T05:40:56;9.77;;;7.82;;
25936;SDS011;13733;51.178;4.450;2022-09-06T05:43:22;10.35;;;7.88;;
25936;SDS011;13733;51.178;4.450;2022-09-06T05:45:51;12.73;;;7.68;;
25936;SDS011;13733;51.178;4.450;2022-09-06T05:48:17;10.93;;;7.90;;
25936;SDS011;13733;51.178;4.450;2022-09-06T05:50:43;10.32;;;7.43;;
25936;SDS011;13733;51.178;4.450;2022-09-06T05:53:09;9.35;;;6.95;;
25936;SDS011;13733;51.178;4.450;2022-09-06T05:55:35;11.98;;;7.97;;
25936;SDS011;13733;51.178;4.450;2022-09-06T05:58:01;13.30;;;7.70;;
25936;SDS011;13733;51.178;4.450;2022-09-06T06:00:28;10.45;;;8.18;;
25936;SDS011;13733;51.178;4.450;2022-09-06T06:02:54;13.27;;;8.60;;
25936;SDS011;13733;51.178;4.450;2022-09-06T06:05:19;11.68;;;9.07;;
25936;SDS011;13733;51.178;4.450;2022-09-06T06:07:45;11.75;;;9.02;;
25936;SDS011;13733;51.178;4.450;2022-09-06T06:10:11;10.05;;;9.05;;
25936;SDS011;13733;51.178;4.450;2022-09-06T06:12:37;14.48;;;9.25;;
25936;SDS011;13733;51.178;4.450;2022-09-06T06:15:03;12.27;;;8.63;;
25936;SDS011;13733;51.178;4.450;2022-09-06T06:17:32;11.80;;;9.47;;
25936;SDS011;13733;51.178;4.450;2022-09-06T06:19:58;13.60;;;8.80;;
25936;SDS011;13733;51.178;4.450;2022-09-06T06:22:23;13.55;;;8.23;;
25936;SDS011;13733;51.178;4.450;2022-09-06T06:24:49;12.13;;;9.45;;
25936;SDS011;13733;51.178;4.450;2022-09-06T06:27:15;14.13;;;8.60;;
25936;SDS011;13733;51.178;4.450;2022-09-06T06:29:42;11.00;;;8.02;;
25936;SDS011;13733;51.178;4.450;2022-09-06T06:32:07;12.40;;;8.27;;
25936;SDS011;13733;51.178;4.450;2022-09-06T06:34:33;11.25;;;7.43;;
25936;SDS011;13733;51.178;4.450;2022-09-06T06:36:59;15.18;;;7.30;;
25936;SDS011;13733;51.178;4.450;2022-09-06T06:39:24;11.57;;;7.38;;
25936;SDS011;13733;51.178;4.450;2022-09-06T06:41:50;11.40;;;7.70;;
25936;SDS011;13733;51.178;4.450;2022-09-06T06:44:28;8.50;;;7.55;;
25936;SDS011;13733;51.178;4.450;2022-09-06T06:46:54;9.43;;;7.18;;
25936;SDS011;13733;51.178;4.450;2022-09-06T06:49:22;11.07;;;7.55;;
25936;SDS011;13733;51.178;4.450;2022-09-06T06:51:49;11.90;;;7.72;;
25936;SDS011;13733;51.178;4.450;2022-09-06T06:54:14;13.43;;;7.78;;
25936;SDS011;13733;51.178;4.450;2022-09-06T06:56:40;7.78;;;6.95;;
25936;SDS011;13733;51.178;4.450;2022-09-06T06:59:06;10.23;;;7.20;;
25936;SDS011;13733;51.178;4.450;2022-09-06T07:01:33;11.35;;;6.78;;
25936;SDS011;13733;51.178;4.450;2022-09-06T07:03:59;11.35;;;7.07;;
25936;SDS011;13733;51.178;4.450;2022-09-06T07:06:26;11.93;;;7.00;;
25936;SDS011;13733;51.178;4.450;2022-09-06T07:08:52;11.43;;;6.90;;
25936;SDS011;13733;51.178;4.450;2022-09-06T07:11:20;10.82;;;6.93;;
25936;SDS011;13733;51.178;4.450;2022-09-06T07:13:46;9.25;;;6.47;;
25936;SDS011;13733;51.178;4.450;2022-09-06T07:16:13;9.52;;;5.97;;
25936;SDS011;13733;51.178;4.450;2022-09-06T07:18:41;9.18;;;6.20;;
25936;SDS011;13733;51.178;4.450;2022-09-06T07:21:15;7.32;;;5.68;;
25936;SDS011;13733;51.178;4.450;2022-09-06T07:23:43;8.93;;;5.68;;
25936;SDS011;13733;51.178;4.450;2022-09-06T07:26:18;11.02;;;5.70;;
25936;SDS011;13733;51.178;4.450;2022-09-06T07:28:52;14.60;;;5.45;;
25936;SDS011;13733;51.178;4.450;2022-09-06T07:31:18;10.35;;;5.47;;
25936;SDS011;13733;51.178;4.450;2022-09-06T07:33:44;10.57;;;5.03;;
25936;SDS011;13733;51.178;4.450;2022-09-06T07:36:09;14.13;;;5.20;;
25936;SDS011;13733;51.178;4.450;2022-09-06T07:38:36;9.73;;;5.30;;
25936;SDS011;13733;51.178;4.450;2022-09-06T07:41:03;13.02;;;4.97;;
25936;SDS011;13733;51.178;4.450;2022-09-06T07:43:30;11.32;;;5.55;;
25936;SDS011;13733;51.178;4.450;2022-09-06T07:46:00;6.50;;;4.07;;
25936;SDS011;13733;51.178;4.450;2022-09-06T07:48:28;9.05;;;4.25;;
25936;SDS011;13733;51.178;4.450;2022-09-06T07:51:00;7.72;;;4.70;;
25936;SDS011;13733;51.178;4.450;2022-09-06T07:53:29;9.57;;;4.72;;
25936;SDS011;13733;51.178;4.450;2022-09-06T07:55:55;12.05;;;4.72;;
25936;SDS011;13733;51.178;4.450;2022-09-06T07:58:21;8.68;;;4.40;;
25936;SDS011;13733;51.178;4.450;2022-09-06T08:00:47;7.30;;;3.97;;
25936;SDS011;13733;51.178;4.450;2022-09-06T08:03:13;16.50;;;4.65;;
25936;SDS011;13733;51.178;4.450;2022-09-06T08:05:38;9.55;;;4.18;;
25936;SDS011;13733;51.178;4.450;2022-09-06T08:08:04;8.55;;;4.38;;
25936;SDS011;13733;51.178;4.450;2022-09-06T08:10:31;11.75;;;4.50;;
25936;SDS011;13733;51.178;4.450;2022-09-06T08:12:56;12.75;;;4.43;;
25936;SDS011;13733;51.178;4.450;2022-09-06T08:15:22;9.05;;;4.22;;
25936;SDS011;13733;51.178;4.450;2022-09-06T08:17:49;9.88;;;4.35;;
25936;SDS011;13733;51.178;4.450;2022-09-06T08:20:15;11.20;;;3.97;;
25936;SDS011;13733;51.178;4.450;2022-09-06T08:22:41;10.40;;;4.40;;
25936;SDS011;13733;51.178;4.450;2022-09-06T08:25:07;8.30;;;4.50;;
25936;SDS011;13733;51.178;4.450;2022-09-06T08:27:33;5.63;;;3.88;;
25936;SDS011;13733;51.178;4.450;2022-09-06T08:29:58;7.40;;;3.40;;
25936;SDS011;13733;51.178;4.450;2022-09-06T08:32:24;7.75;;;3.58;;
25936;SDS011;13733;51.178;4.450;2022-09-06T08:34:50;12.20;;;3.80;;
25936;SDS011;13733;51.178;4.450;2022-09-06T08:37:16;10.15;;;3.80;;
25936;SDS011;13733;51.178;4.450;2022-09-06T08:39:42;5.63;;;3.30;;
25936;SDS011;13733;51.178;4.450;2022-09-06T08:42:07;10.20;;;3.78;;
25936;SDS011;13733;51.178;4.450;2022-09-06T08:44:39;13.40;;;4.10;;
25936;SDS011;13733;51.178;4.450;2022-09-06T08:47:24;7.32;;;3.75;;
25936;SDS011;13733;51.178;4.450;2022-09-06T08:49:52;11.40;;;4.22;;
25936;SDS011;13733;51.178;4.450;2022-09-06T09:00:49;15.90;;;5.00;;
25936;SDS011;13733;51.178;4.450;2022-09-06T09:03:23;9.77;;;4.95;;
25936;SDS011;13733;51.178;4.450;2022-09-06T09:05:59;14.05;;;4.78;;
25936;SDS011;13733;51.178;4.450;2022-09-06T09:11:14;8.68;;;4.60;;
25936;SDS011;13733;51.178;4.450;2022-09-06T09:16:11;8.93;;;5.85;;
25936;SDS011;13733;51.178;4.450;2022-09-06T09:18:39;10.38;;;5.55;;
25936;SDS011;13733;51.178;4.450;2022-09-06T09:21:09;9.48;;;5.13;;
25936;SDS011;13733;51.178;4.450;2022-09-06T09:23:35;14.38;;;5.70;;
25936;SDS011;13733;51.178;4.450;2022-09-06T09:26:02;11.23;;;6.07;;
25936;SDS011;13733;51.178;4.450;2022-09-06T09:28:31;14.65;;;6.35;;
25936;SDS011;13733;51.178;4.450;2022-09-06T09:30:57;8.27;;;5.20;;
25936;SDS011;13733;51.178;4.450;2022-09-06T09:33:28;14.00;;;5.45;;
25936;SDS011;13733;51.178;4.450;2022-09-06T09:36:00;8.70;;;5.28;;
25936;SDS011;13733;51.178;4.450;2022-09-06T09:38:44;10.57;;;5.60;;
25936;SDS011;13733;51.178;4.450;2022-09-06T09:41:29;10.13;;;5.35;;
25936;SDS011;13733;51.178;4.450;2022-09-06T09:46:53;10.77;;;5.82;;
25936;SDS011;13733;51.178;4.450;2022-09-06T09:54:32;10.63;;;5.25;;
25936;SDS011;13733;51.178;4.450;2022-09-06T09:57:05;10.13;;;5.30;;
25936;SDS011;13733;51.178;4.450;2022-09-06T10:02:00;15.55;;;4.93;;
25936;SDS011;13733;51.178;4.450;2022-09-06T10:04:44;11.55;;;4.15;;
25936;SDS011;13733;51.178;4.450;2022-09-06T10:07:15;10.70;;;4.45;;
25936;SDS011;13733;51.178;4.450;2022-09-06T10:09:49;7.72;;;4.00;;
25936;SDS011;13733;51.178;4.450;2022-09-06T10:12:30;10.63;;;4.18;;
25936;SDS011;13733;51.178;4.450;2022-09-06T10:14:57;9.48;;;3.47;;
25936;SDS011;13733;51.178;4.450;2022-09-06T10:17:27;6.85;;;4.00;;
25936;SDS011;13733;51.178;4.450;2022-09-06T10:19:56;10.23;;;3.47;;
25936;SDS011;13733;51.178;4.450;2022-09-06T10:22:31;4.53;;;2.78;;
25936;SDS011;13733;51.178;4.450;2022-09-06T10:25:13;9.85;;;3.38;;
25936;SDS011;13733;51.178;4.450;2022-09-06T10:28:05;8.15;;;2.95;;
25936;SDS011;13733;51.178;4.450;2022-09-06T10:36:02;9.00;;;2.83;;
25936;SDS011;13733;51.178;4.450;2022-09-06T10:38:37;9.02;;;2.80;;
25936;SDS011;13733;51.178;4.450;2022-09-06T10:43:44;5.97;;;3.33;;
25936;SDS011;13733;51.178;4.450;2022-09-06T10:46:24;7.05;;;3.55;;
25936;SDS011;13733;51.178;4.450;2022-09-06T10:48:51;7.55;;;2.58;;
25936;SDS011;13733;51.178;4.450;2022-09-06T10:54:06;11.60;;;2.60;;
25936;SDS011;13733;51.178;4.450;2022-09-06T10:56:36;4.93;;;2.42;;
25936;SDS011;13733;51.178;4.450;2022-09-06T11:05:07;8.50;;;2.42;;
25936;SDS011;13733;51.178;4.450;2022-09-06T11:07:40;7.00;;;2.53;;
25936;SDS011;13733;51.178;4.450;2022-09-06T11:18:32;10.38;;;2.53;;
25936;SDS011;13733;51.178;4.450;2022-09-06T11:24:19;11.88;;;2.47;;
25936;SDS011;13733;51.178;4.450;2022-09-06T11:26:42;6.30;;;2.00;;
25936;SDS011;13733;51.178;4.450;2022-09-06T11:29:23;5.47;;;1.92;;
25936;SDS011;13733;51.178;4.450;2022-09-06T11:31:59;4.35;;;2.00;;
25936;SDS011;13733;51.178;4.450;2022-09-06T11:34:30;4.80;;;1.90;;
25936;SDS011;13733;51.178;4.450;2022-09-06T11:36:58;6.53;;;1.90;;
25936;SDS011;13733;51.178;4.450;2022-09-06T11:39:33;4.75;;;1.90;;
25936;SDS011;13733;51.178;4.450;2022-09-06T11:42:07;6.43;;;2.03;;
25936;SDS011;13733;51.178;4.450;2022-09-06T11:45:12;5.30;;;2.08;;
25936;SDS011;13733;51.178;4.450;2022-09-06T11:47:47;2.65;;;1.42;;
25936;SDS011;13733;51.178;4.450;2022-09-06T11:58:27;2.95;;;1.50;;
25936;SDS011;13733;51.178;4.450;2022-09-06T12:06:31;4.53;;;1.50;;
25936;SDS011;13733;51.178;4.450;2022-09-06T12:08:57;3.10;;;1.52;;
25936;SDS011;13733;51.178;4.450;2022-09-06T12:19:43;5.15;;;1.50;;
25936;SDS011;13733;51.178;4.450;2022-09-06T12:25:02;4.80;;;1.67;;
25936;SDS011;13733;51.178;4.450;2022-09-06T12:30:30;4.85;;;1.90;;
25936;SDS011;13733;51.178;4.450;2022-09-06T12:33:43;4.97;;;1.70;;
25936;SDS011;13733;51.178;4.450;2022-09-06T12:38:38;5.47;;;1.70;;
25936;SDS011;13733;51.178;4.450;2022-09-06T12:41:03;6.90;;;1.80;;
25936;SDS011;13733;51.178;4.450;2022-09-06T12:43:32;5.72;;;1.95;;
25936;SDS011;13733;51.178;4.450;2022-09-06T12:46:00;3.85;;;1.80;;
25936;SDS011;13733;51.178;4.450;2022-09-06T12:48:30;7.15;;;2.33;;
25936;SDS011;13733;51.178;4.450;2022-09-06T12:51:20;4.60;;;1.80;;
25936;SDS011;13733;51.178;4.450;2022-09-06T12:53:49;5.30;;;1.80;;
25936;SDS011;13733;51.178;4.450;2022-09-06T12:56:20;6.35;;;1.92;;
25936;SDS011;13733;51.178;4.450;2022-09-06T12:58:47;6.57;;;1.85;;
25936;SDS011;13733;51.178;4.450;2022-09-06T13:01:48;3.05;;;1.73;;
25936;SDS011;13733;51.178;4.450;2022-09-06T13:04:11;3.70;;;1.73;;
25936;SDS011;13733;51.178;4.450;2022-09-06T13:06:47;5.78;;;1.80;;
25936;SDS011;13733;51.178;4.450;2022-09-06T13:09:14;4.55;;;1.90;;
25936;SDS011;13733;51.178;4.450;2022-09-06T13:11:45;3.40;;;1.83;;
25936;SDS011;13733;51.178;4.450;2022-09-06T13:14:24;4.50;;;1.85;;
25936;SDS011;13733;51.178;4.450;2022-09-06T13:16:53;6.57;;;1.90;;
25936;SDS011;13733;51.178;4.450;2022-09-06T13:19:29;8.75;;;1.90;;
25936;SDS011;13733;51.178;4.450;2022-09-06T13:22:00;5.63;;;2.08;;
25936;SDS011;13733;51.178;4.450;2022-09-06T13:27:23;6.70;;;2.10;;
25936;SDS011;13733;51.178;4.450;2022-09-06T13:29:58;6.75;;;2.30;;
25936;SDS011;13733;51.178;4.450;2022-09-06T13:32:26;5.10;;;1.90;;
25936;SDS011;13733;51.178;4.450;2022-09-06T13:34:52;3.47;;;1.70;;
25936;SDS011;13733;51.178;4.450;2022-09-06T13:37:30;8.52;;;2.10;;
25936;SDS011;13733;51.178;4.450;2022-09-06T13:39:58;7.10;;;1.98;;
25936;SDS011;13733;51.178;4.450;2022-09-06T13:42:30;3.88;;;1.75;;
25936;SDS011;13733;51.178;4.450;2022-09-06T13:44:58;4.82;;;1.90;;
25936;SDS011;13733;51.178;4.450;2022-09-06T13:47:43;5.50;;;2.00;;
25936;SDS011;13733;51.178;4.450;2022-09-06T13:50:09;4.93;;;1.90;;
25936;SDS011;13733;51.178;4.450;2022-09-06T13:52:34;4.50;;;2.00;;
25936;SDS011;13733;51.178;4.450;2022-09-06T13:55:00;10.05;;;2.20;;
25936;SDS011;13733;51.178;4.450;2022-09-06T13:57:26;3.53;;;1.90;;
25936;SDS011;13733;51.178;4.450;2022-09-06T13:59:51;7.72;;;2.10;;
25936;SDS011;13733;51.178;4.450;2022-09-06T14:02:17;8.85;;;2.20;;
25936;SDS011;13733;51.178;4.450;2022-09-06T14:04:44;6.60;;;2.10;;
25936;SDS011;13733;51.178;4.450;2022-09-06T14:07:10;3.65;;;1.98;;
25936;SDS011;13733;51.178;4.450;2022-09-06T14:09:36;6.97;;;1.95;;
25936;SDS011;13733;51.178;4.450;2022-09-06T14:12:02;4.43;;;1.80;;
25936;SDS011;13733;51.178;4.450;2022-09-06T14:14:31;9.82;;;2.45;;
25936;SDS011;13733;51.178;4.450;2022-09-06T14:16:58;5.43;;;2.35;;
25936;SDS011;13733;51.178;4.450;2022-09-06T14:19:23;6.38;;;2.10;;
25936;SDS011;13733;51.178;4.450;2022-09-06T14:21:49;6.20;;;2.20;;
25936;SDS011;13733;51.178;4.450;2022-09-06T14:24:17;7.45;;;2.08;;
25936;SDS011;13733;51.178;4.450;2022-09-06T14:26:43;7.63;;;2.00;;
25936;SDS011;13733;51.178;4.450;2022-09-06T14:29:09;10.77;;;2.10;;
25936;SDS011;13733;51.178;4.450;2022-09-06T14:31:34;5.13;;;2.10;;
25936;SDS011;13733;51.178;4.450;2022-09-06T14:34:00;5.43;;;2.00;;
25936;SDS011;13733;51.178;4.450;2022-09-06T14:36:28;4.05;;;1.80;;
25936;SDS011;13733;51.178;4.450;2022-09-06T14:38:56;5.88;;;1.98;;
25936;SDS011;13733;51.178;4.450;2022-09-06T14:41:23;7.25;;;2.28;;
25936;SDS011;13733;51.178;4.450;2022-09-06T14:43:50;10.25;;;2.25;;
25936;SDS011;13733;51.178;4.450;2022-09-06T14:46:20;7.03;;;2.10;;
25936;SDS011;13733;51.178;4.450;2022-09-06T14:48:47;3.22;;;1.90;;
25936;SDS011;13733;51.178;4.450;2022-09-06T14:51:13;8.05;;;2.25;;
25936;SDS011;13733;51.178;4.450;2022-09-06T14:53:43;3.42;;;1.95;;
25936;SDS011;13733;51.178;4.450;2022-09-06T14:56:09;8.20;;;2.08;;
25936;SDS011;13733;51.178;4.450;2022-09-06T14:58:36;5.80;;;2.03;;
25936;SDS011;13733;51.178;4.450;2022-09-06T15:01:07;7.95;;;2.30;;
25936;SDS011;13733;51.178;4.450;2022-09-06T15:03:40;10.00;;;2.30;;
25936;SDS011;13733;51.178;4.450;2022-09-06T15:06:09;3.88;;;2.00;;
25936;SDS011;13733;51.178;4.450;2022-09-06T15:08:35;3.47;;;1.98;;
25936;SDS011;13733;51.178;4.450;2022-09-06T15:11:02;11.13;;;2.47;;
25936;SDS011;13733;51.178;4.450;2022-09-06T15:13:32;7.68;;;2.58;;
25936;SDS011;13733;51.178;4.450;2022-09-06T15:16:01;4.47;;;2.13;;
25936;SDS011;13733;51.178;4.450;2022-09-06T15:18:27;6.90;;;2.30;;
25936;SDS011;13733;51.178;4.450;2022-09-06T15:20:53;3.80;;;1.55;;
25936;SDS011;13733;51.178;4.450;2022-09-06T15:23:19;3.80;;;2.00;;
25936;SDS011;13733;51.178;4.450;2022-09-06T15:25:47;6.65;;;2.10;;
25936;SDS011;13733;51.178;4.450;2022-09-06T15:28:14;4.00;;;1.90;;
25936;SDS011;13733;51.178;4.450;2022-09-06T15:30:40;4.20;;;1.90;;
25936;SDS011;13733;51.178;4.450;2022-09-06T15:33:06;5.85;;;1.75;;
25936;SDS011;13733;51.178;4.450;2022-09-06T15:35:34;8.65;;;2.00;;
25936;SDS011;13733;51.178;4.450;2022-09-06T15:38:02;4.57;;;1.90;;
25936;SDS011;13733;51.178;4.450;2022-09-06T15:40:28;5.13;;;1.98;;
25936;SDS011;13733;51.178;4.450;2022-09-06T15:42:54;2.58;;;1.60;;
25936;SDS011;13733;51.178;4.450;2022-09-06T15:45:20;8.02;;;2.05;;
25936;SDS011;13733;51.178;4.450;2022-09-06T15:47:45;5.70;;;2.40;;
25936;SDS011;13733;51.178;4.450;2022-09-06T15:50:11;4.47;;;2.50;;
25936;SDS011;13733;51.178;4.450;2022-09-06T15:52:37;4.88;;;2.60;;
25936;SDS011;13733;51.178;4.450;2022-09-06T15:55:03;6.60;;;2.47;;
25936;SDS011;13733;51.178;4.450;2022-09-06T15:57:47;3.25;;;1.98;;
25936;SDS011;13733;51.178;4.450;2022-09-06T16:00:14;9.88;;;2.58;;
25936;SDS011;13733;51.178;4.450;2022-09-06T16:02:41;4.93;;;2.22;;
25936;SDS011;13733;51.178;4.450;2022-09-06T16:05:07;5.38;;;2.83;;
25936;SDS011;13733;51.178;4.450;2022-09-06T16:07:33;7.80;;;2.80;;
25936;SDS011;13733;51.178;4.450;2022-09-06T16:10:02;7.28;;;3.10;;
25936;SDS011;13733;51.178;4.450;2022-09-06T16:12:28;8.20;;;4.65;;
25936;SDS011;13733;51.178;4.450;2022-09-06T16:14:54;7.35;;;3.15;;
25936;SDS011;13733;51.178;4.450;2022-09-06T16:17:20;8.13;;;4.63;;
25936;SDS011;13733;51.178;4.450;2022-09-06T16:19:47;7.72;;;4.22;;
25936;SDS011;13733;51.178;4.450;2022-09-06T16:22:13;7.68;;;3.38;;
25936;SDS011;13733;51.178;4.450;2022-09-06T16:24:39;4.70;;;2.60;;
25936;SDS011;13733;51.178;4.450;2022-09-06T16:27:05;8.35;;;2.90;;
25936;SDS011;13733;51.178;4.450;2022-09-06T16:29:31;8.85;;;3.13;;
25936;SDS011;13733;51.178;4.450;2022-09-06T16:31:57;9.45;;;2.50;;
25936;SDS011;13733;51.178;4.450;2022-09-06T16:34:24;12.60;;;2.88;;
25936;SDS011;13733;51.178;4.450;2022-09-06T16:36:51;15.80;;;2.60;;
25936;SDS011;13733;51.178;4.450;2022-09-06T16:39:17;10.52;;;2.65;;
25936;SDS011;13733;51.178;4.450;2022-09-06T16:41:44;9.18;;;2.28;;
25936;SDS011;13733;51.178;4.450;2022-09-06T16:44:12;10.38;;;2.15;;
25936;SDS011;13733;51.178;4.450;2022-09-06T16:46:40;12.60;;;2.50;;
25936;SDS011;13733;51.178;4.450;2022-09-06T16:49:07;7.55;;;1.95;;